MAPA DE AEROPUERTO

INFORMACIÓN METAR y TAF

METAR FOR LEZG
ADDS - METARS form results

(1817 UTC 01 June 2020)
Data provider http://aviationweather.gov/metar/data/
 
METAR text: LEZG 011800Z 36004KT 320V040 CAVOK 28/14 Q1013
Conditions at: LEZG (ZARAGOZA (MIL/CI, ES) observed 1800 UTC 01 June 2020
Temperature: 28.0°C (82°F)
Dewpoint: 14.0°C (57°F) [RH = 42%]
Pressure (altimeter): 29.91 inches Hg (1013.0 mb)
Winds: from the N (360 degrees) at 5 MPH (4 knots; 2.1 m/s)
Visibility: 6 or more miles (10+ km)
Ceiling: ceiling and visibility are OK
Clouds: unknown
Weather: no significant weather observed at this time

METAR text: LEZG 011730Z 01004KT 340V150 CAVOK 29/13 Q1013
Conditions at: LEZG (ZARAGOZA (MIL/CI, ES) observed 1730 UTC 01 June 2020
Temperature: 29.0°C (84°F)
Dewpoint: 13.0°C (55°F) [RH = 37%]
Pressure (altimeter): 29.91 inches Hg (1013.0 mb)
Winds: from the N (10 degrees) at 5 MPH (4 knots; 2.1 m/s)
Visibility: 6 or more miles (10+ km)
Ceiling: ceiling and visibility are OK
Clouds: unknown
Weather: no significant weather observed at this time

Forecast for: LEZG (ZARAGOZA (MIL/CI, ES)
Text: TAF LEZG 011700Z 0118/0218 VRB05KT 9999 FEW050 TX31/0213Z TN18/0206Z
Forecast period: 1800 to 2000 UTC 01 June 2020
Forecast type: FROM: standard forecast or significant change
Winds: variable direction winds at 6 MPH (5 knots; 2.6 m/s)
Visibility: 6 or more miles 10+ km)
Ceiling: at least 12,000 feet AGL
Clouds: few clouds at 5000 feet AGL
Weather: no significant weather forecast for this period
Text: BECMG 0120/0122 10007KT
Forecast period: 2000 UTC 01 June 2020 to 1800 UTC 02 June 2020
Forecast type: BECOMING: Conditions expected to become as follows by 2200 UTC 01 June 2020
Winds: from the E (100 degrees) at 8 MPH (7 knots; 3.6 m/s)
Visibility: 6 or more miles 10+ km)
Ceiling: at least 12,000 feet AGL
Clouds: few clouds at 5000 feet AGL
Weather: no significant weather forecast for this period
Text: PROB30
Forecast period: 1400 to 1800 UTC 02 June 2020
Forecast type: TEMPORARY: The following changes expected for less than half the time period
Visibility: 2.49 miles (4.01 km)
Ceiling: at least 12,000 feet AGL
Clouds: few clouds at 6000 feet AGL
Weather: SHRA  (rain showers)